42.1°F
Current conditions from King Hill
Updated every 5 minutes
 
  Wednesday April 23, 2014

Station Historical Data
Daily Summary for June 7, 2012 Units:  Both    English   Metric
« Previous Day
Next Day »
Daily Weekly Monthly Yearly Custom
  High: Low: Average:
Temperature: 73.0 °F /  22.8 °C 50.0 °F /  10 °C 60.3 °F /  15.7 °C
Dew Point: 57.2 °F /  14 °C 45.0 °F /  7.2 °C 50.7 °F /  10.4 °C
Humidity: 96% 37% 74%
Wind Speed: 6.0mph /  9.7km/h - 2.1mph /  3.4km/h
Wind Gust: 11.0mph /  17.7km/h - -
Wind- - WSW
Pressure: 29.95 in /  1014.1 hPa 29.84 in /  1010.4 hPa -
Precipitation: 0.00 in /  0 mm    
Historical Graphs
 
 
Tabular Data for June 7, 2012
Time Temperature Dew Point Pressure Wind Wind Speed Wind Gust Humidity Daily Rainfall
00:04 50.7 °F /  10.4 °C 49.0 °F /  9.4 °C 29.92in /  1013.1hPa Calm     94% 0.00in /  0mm
00:14 50.4 °F /  10.2 °C 48.7 °F /  9.3 °C 29.93in /  1013.4hPa Calm     94% 0.00in /  0mm
00:19 50.2 °F /  10.1 °C 48.5 °F /  9.2 °C 29.93in /  1013.4hPa Calm     94% 0.00in /  0mm
00:24 50.0 °F /  10 °C 48.3 °F /  9.1 °C 29.93in /  1013.4hPa Calm     94% 0.00in /  0mm
00:29 50.0 °F /  10 °C 48.3 °F /  9.1 °C 29.92in /  1013.1hPa Calm     94% 0.00in /  0mm
00:34 50.0 °F /  10 °C 48.6 °F /  9.2 °C 29.92in /  1013.1hPa Calm     95% 0.00in /  0mm
00:40 50.3 °F /  10.2 °C 48.9 °F /  9.4 °C 29.92in /  1013.1hPa Calm     95% 0.00in /  0mm
00:49 50.3 °F /  10.2 °C 48.9 °F /  9.4 °C 29.92in /  1013.1hPa Calm     95% 0.00in /  0mm
00:54 50.2 °F /  10.1 °C 48.8 °F /  9.3 °C 29.92in /  1013.1hPa Calm     95% 0.00in /  0mm
00:59 50.1 °F /  10.1 °C 48.7 °F /  9.3 °C 29.92in /  1013.1hPa Calm     95% 0.00in /  0mm
01:04 50.1 °F /  10.1 °C 48.7 °F /  9.3 °C 29.92in /  1013.1hPa Calm     95% 0.00in /  0mm
01:09 50.1 °F /  10.1 °C 48.7 °F /  9.3 °C 29.92in /  1013.1hPa Calm     95% 0.00in /  0mm
01:14 50.1 °F /  10.1 °C 48.7 °F /  9.3 °C 29.92in /  1013.1hPa Calm     95% 0.00in /  0mm
01:19 50.2 °F /  10.1 °C 48.8 °F /  9.3 °C 29.92in /  1013.1hPa Calm     95% 0.00in /  0mm
01:24 50.3 °F /  10.2 °C 48.9 °F /  9.4 °C 29.92in /  1013.1hPa Calm     95% 0.00in /  0mm
01:29 50.3 °F /  10.2 °C 48.9 °F /  9.4 °C 29.92in /  1013.1hPa Calm     95% 0.00in /  0mm
01:34 50.4 °F /  10.2 °C 49.0 °F /  9.4 °C 29.92in /  1013.1hPa Calm     95% 0.00in /  0mm
01:39 50.4 °F /  10.2 °C 49.0 °F /  9.4 °C 29.92in /  1013.1hPa Calm     95% 0.00in /  0mm
01:44 50.5 °F /  10.3 °C 49.1 °F /  9.5 °C 29.92in /  1013.1hPa Calm     95% 0.00in /  0mm
01:49 50.5 °F /  10.3 °C 49.1 °F /  9.5 °C 29.92in /  1013.1hPa Calm     95% 0.00in /  0mm
01:54 50.5 °F /  10.3 °C 49.1 °F /  9.5 °C 29.92in /  1013.1hPa Calm     95% 0.00in /  0mm
02:04 50.7 °F /  10.4 °C 49.3 °F /  9.6 °C 29.92in /  1013.1hPa Calm     95% 0.00in /  0mm
02:09 50.7 °F /  10.4 °C 49.3 °F /  9.6 °C 29.92in /  1013.1hPa Calm     95% 0.00in /  0mm
02:14 50.8 °F /  10.4 °C 49.4 °F /  9.7 °C 29.92in /  1013.1hPa Calm     95% 0.00in /  0mm
02:19 50.9 °F /  10.5 °C 49.8 °F /  9.9 °C 29.91in /  1012.8hPa Calm     96% 0.00in /  0mm
02:29 50.7 °F /  10.4 °C 49.3 °F /  9.6 °C 29.91in /  1012.8hPa Calm     95% 0.00in /  0mm
02:39 50.6 °F /  10.3 °C 49.2 °F /  9.6 °C 29.91in /  1012.8hPa Calm     95% 0.00in /  0mm
02:44 50.6 °F /  10.3 °C 49.2 °F /  9.6 °C 29.91in /  1012.8hPa Calm     95% 0.00in /  0mm
02:49 50.6 °F /  10.3 °C 49.2 °F /  9.6 °C 29.91in /  1012.8hPa Calm     95% 0.00in /  0mm
02:54 50.6 °F /  10.3 °C 49.2 °F /  9.6 °C 29.91in /  1012.8hPa Calm     95% 0.00in /  0mm
02:59 50.7 °F /  10.4 °C 49.3 °F /  9.6 °C 29.91in /  1012.8hPa Calm     95% 0.00in /  0mm
03:05 50.8 °F /  10.4 °C 49.4 °F /  9.7 °C 29.91in /  1012.8hPa Calm     95% 0.00in /  0mm
03:14 51.0 °F /  10.6 °C 49.9 °F /  9.9 °C 29.91in /  1012.8hPa Calm     96% 0.00in /  0mm
03:19 51.0 °F /  10.6 °C 49.9 °F /  9.9 °C 29.91in /  1012.8hPa Calm     96% 0.00in /  0mm
03:24 50.9 °F /  10.5 °C 49.8 °F /  9.9 °C 29.91in /  1012.8hPa Calm     96% 0.00in /  0mm
03:29 50.9 °F /  10.5 °C 49.8 °F /  9.9 °C 29.91in /  1012.8hPa Calm     96% 0.00in /  0mm
03:39 50.9 °F /  10.5 °C 49.8 °F /  9.9 °C 29.91in /  1012.8hPa Calm     96% 0.00in /  0mm
03:44 50.9 °F /  10.5 °C 49.8 °F /  9.9 °C 29.91in /  1012.8hPa Calm     96% 0.00in /  0mm
03:49 50.9 °F /  10.5 °C 49.8 °F /  9.9 °C 29.91in /  1012.8hPa Calm     96% 0.00in /  0mm
03:54 50.8 °F /  10.4 °C 49.7 °F /  9.8 °C 29.91in /  1012.8hPa Calm     96% 0.00in /  0mm
03:59 50.8 °F /  10.4 °C 49.7 °F /  9.8 °C 29.91in /  1012.8hPa Calm     96% 0.00in /  0mm
04:04 50.9 °F /  10.5 °C 49.8 °F /  9.9 °C 29.91in /  1012.8hPa Calm     96% 0.00in /  0mm
04:09 50.9 °F /  10.5 °C 49.8 °F /  9.9 °C 29.91in /  1012.8hPa Calm     96% 0.00in /  0mm
04:14 50.8 °F /  10.4 °C 49.7 °F /  9.8 °C 29.91in /  1012.8hPa Calm     96% 0.00in /  0mm
04:19 50.8 °F /  10.4 °C 49.7 °F /  9.8 °C 29.91in /  1012.8hPa Calm     96% 0.00in /  0mm
04:24 50.8 °F /  10.4 °C 49.7 °F /  9.8 °C 29.91in /  1012.8hPa Calm     96% 0.00in /  0mm
04:29 50.8 °F /  10.4 °C 49.7 °F /  9.8 °C 29.92in /  1013.1hPa Calm     96% 0.00in /  0mm
04:34 50.7 °F /  10.4 °C 49.6 °F /  9.8 °C 29.92in /  1013.1hPa Calm     96% 0.00in /  0mm
04:39 50.8 °F /  10.4 °C 49.7 °F /  9.8 °C 29.92in /  1013.1hPa Calm     96% 0.00in /  0mm
04:44 50.7 °F /  10.4 °C 49.6 °F /  9.8 °C 29.92in /  1013.1hPa Calm     96% 0.00in /  0mm
04:49 50.6 °F /  10.3 °C 49.5 °F /  9.7 °C 29.92in /  1013.1hPa Calm     96% 0.00in /  0mm
04:54 50.5 °F /  10.3 °C 49.4 °F /  9.7 °C 29.92in /  1013.1hPa Calm     96% 0.00in /  0mm
04:59 50.5 °F /  10.3 °C 49.4 °F /  9.7 °C 29.92in /  1013.1hPa Calm     96% 0.00in /  0mm
05:04 50.5 °F /  10.3 °C 49.4 °F /  9.7 °C 29.93in /  1013.4hPa Calm     96% 0.00in /  0mm
05:09 50.5 °F /  10.3 °C 49.4 °F /  9.7 °C 29.93in /  1013.4hPa Calm     96% 0.00in /  0mm
05:14 50.5 °F /  10.3 °C 49.4 °F /  9.7 °C 29.93in /  1013.4hPa Calm     96% 0.00in /  0mm
05:20 50.5 °F /  10.3 °C 49.4 °F /  9.7 °C 29.93in /  1013.4hPa Calm     96% 0.00in /  0mm
05:29 50.5 °F /  10.3 °C 49.4 °F /  9.7 °C 29.93in /  1013.4hPa Calm     96% 0.00in /  0mm
05:34 50.4 °F /  10.2 °C 49.3 °F /  9.6 °C 29.93in /  1013.4hPa Calm     96% 0.00in /  0mm
05:39 50.4 °F /  10.2 °C 49.3 °F /  9.6 °C 29.93in /  1013.4hPa Calm     96% 0.00in /  0mm
05:49 50.4 °F /  10.2 °C 49.3 °F /  9.6 °C 29.93in /  1013.4hPa Calm     96% 0.00in /  0mm
05:54 50.5 °F /  10.3 °C 49.4 °F /  9.7 °C 29.93in /  1013.4hPa Calm     96% 0.00in /  0mm
05:59 50.6 °F /  10.3 °C 49.5 °F /  9.7 °C 29.93in /  1013.4hPa Calm     96% 0.00in /  0mm
06:04 50.7 °F /  10.4 °C 49.6 °F /  9.8 °C 29.93in /  1013.4hPa Calm     96% 0.00in /  0mm
06:09 50.8 °F /  10.4 °C 49.7 °F /  9.8 °C 29.93in /  1013.4hPa Calm     96% 0.00in /  0mm
06:14 51.0 °F /  10.6 °C 49.9 °F /  9.9 °C 29.94in /  1013.8hPa Calm     96% 0.00in /  0mm
06:19 51.4 °F /  10.8 °C 50.3 °F /  10.2 °C 29.94in /  1013.8hPa Calm     96% 0.00in /  0mm
06:24 51.7 °F /  10.9 °C 50.6 °F /  10.3 °C 29.94in /  1013.8hPa Calm     96% 0.00in /  0mm
06:29 52.2 °F /  11.2 °C 51.1 °F /  10.6 °C 29.94in /  1013.8hPa Calm     96% 0.00in /  0mm
06:34 52.5 °F /  11.4 °C 51.4 °F /  10.8 °C 29.94in /  1013.8hPa Calm     96% 0.00in /  0mm
06:39 52.7 °F /  11.5 °C 51.6 °F /  10.9 °C 29.94in /  1013.8hPa Calm     96% 0.00in /  0mm
06:44 53.0 °F /  11.7 °C 51.9 °F /  11.1 °C 29.94in /  1013.8hPa Calm     96% 0.00in /  0mm
06:49 53.2 °F /  11.8 °C 52.1 °F /  11.2 °C 29.94in /  1013.8hPa Calm     96% 0.00in /  0mm
06:54 53.5 °F /  11.9 °C 52.4 °F /  11.3 °C 29.94in /  1013.8hPa Calm   1.0mph /  1.6km/h 96% 0.00in /  0mm
06:59 53.7 °F /  12.1 °C 52.6 °F /  11.4 °C 29.94in /  1013.8hPa Calm   1.0mph /  1.6km/h 96% 0.00in /  0mm
07:04 53.7 °F /  12.1 °C 52.6 °F /  11.4 °C 29.94in /  1013.8hPa Calm     96% 0.00in /  0mm
07:09 54.0 °F /  12.2 °C 52.9 °F /  11.6 °C 29.94in /  1013.8hPa Calm     96% 0.00in /  0mm
07:14 54.0 °F /  12.2 °C 52.9 °F /  11.6 °C 29.94in /  1013.8hPa Calm     96% 0.00in /  0mm
07:19 54.0 °F /  12.2 °C 52.9 °F /  11.6 °C 29.94in /  1013.8hPa Calm     96% 0.00in /  0mm
07:24 54.0 °F /  12.2 °C 52.9 °F /  11.6 °C 29.94in /  1013.8hPa Calm     96% 0.00in /  0mm
07:29 54.3 °F /  12.4 °C 53.2 °F /  11.8 °C 29.94in /  1013.8hPa Calm     96% 0.00in /  0mm
07:39 54.7 °F /  12.6 °C 53.6 °F /  12 °C 29.94in /  1013.8hPa Calm     96% 0.00in /  0mm
07:45 54.9 °F /  12.7 °C 53.8 °F /  12.1 °C 29.94in /  1013.8hPa Calm     96% 0.00in /  0mm
07:54 55.9 °F /  13.3 °C 54.8 °F /  12.7 °C 29.94in /  1013.8hPa Calm     96% 0.00in /  0mm
07:59 56.9 °F /  13.8 °C 55.8 °F /  13.2 °C 29.94in /  1013.8hPa Calm     96% 0.00in /  0mm
08:04 57.8 °F /  14.3 °C 56.7 °F /  13.7 °C 29.94in /  1013.8hPa Calm     96% 0.00in /  0mm
08:09 58.6 °F /  14.8 °C 57.2 °F /  14 °C 29.94in /  1013.8hPa Calm     95% 0.00in /  0mm
08:14 59.0 °F /  15 °C 56.7 °F /  13.7 °C 29.94in /  1013.8hPa Calm     92% 0.00in /  0mm
08:19 59.4 °F /  15.2 °C 55.8 °F /  13.2 °C 29.94in /  1013.8hPa Calm     88% 0.00in /  0mm
08:24 59.4 °F /  15.2 °C 55.2 °F /  12.9 °C 29.94in /  1013.8hPa Calm     86% 0.00in /  0mm
08:29 60.1 °F /  15.6 °C 56.2 °F /  13.4 °C 29.94in /  1013.8hPa Calm     87% 0.00in /  0mm
08:39 61.6 °F /  16.4 °C 56.1 °F /  13.4 °C 29.94in /  1013.8hPa Calm     82% 0.00in /  0mm
08:44 62.1 °F /  16.7 °C 56.5 °F /  13.6 °C 29.94in /  1013.8hPa Calm     82% 0.00in /  0mm
08:49 62.4 °F /  16.9 °C 56.2 °F /  13.4 °C 29.94in /  1013.8hPa Calm     80% 0.00in /  0mm
08:54 62.3 °F /  16.8 °C 55.0 °F /  12.8 °C 29.94in /  1013.8hPa Calm   1.0mph /  1.6km/h 77% 0.00in /  0mm
08:59 62.5 °F /  16.9 °C 55.2 °F /  12.9 °C 29.95in /  1014.1hPa Calm   1.0mph /  1.6km/h 77% 0.00in /  0mm
09:04 62.6 °F /  17 °C 54.9 °F /  12.7 °C 29.95in /  1014.1hPa Calm     76% 0.00in /  0mm
09:09 62.8 °F /  17.1 °C 56.2 °F /  13.4 °C 29.95in /  1014.1hPa Calm     79% 0.00in /  0mm
09:14 63.2 °F /  17.3 °C 55.9 °F /  13.3 °C 29.94in /  1013.8hPa Calm     77% 0.00in /  0mm
09:19 63.6 °F /  17.6 °C 55.9 °F /  13.3 °C 29.94in /  1013.8hPa Calm     76% 0.00in /  0mm
09:24 63.6 °F /  17.6 °C 55.2 °F /  12.9 °C 29.94in /  1013.8hPa Calm     74% 0.00in /  0mm
09:29 63.8 °F /  17.7 °C 55.7 °F /  13.2 °C 29.94in /  1013.8hPa Calm     75% 0.00in /  0mm
09:34 64.5 °F /  18.1 °C 55.3 °F /  12.9 °C 29.94in /  1013.8hPa Calm     72% 0.00in /  0mm
09:39 65.0 °F /  18.3 °C 55.8 °F /  13.2 °C 29.94in /  1013.8hPa Calm     72% 0.00in /  0mm
09:44 65.4 °F /  18.6 °C 55.4 °F /  13 °C 29.94in /  1013.8hPa Calm     70% 0.00in /  0mm
09:49 65.8 °F /  18.8 °C 55.8 °F /  13.2 °C 29.94in /  1013.8hPa Calm     70% 0.00in /  0mm
09:54 66.0 °F /  18.9 °C 55.1 °F /  12.8 °C 29.94in /  1013.8hPa Calm     68% 0.00in /  0mm
09:59 65.4 °F /  18.6 °C 54.2 °F /  12.3 °C 29.94in /  1013.8hPa Calm     67% 0.00in /  0mm
10:04 64.9 °F /  18.3 °C 53.7 °F /  12.1 °C 29.94in /  1013.8hPa Calm     67% 0.00in /  0mm
10:09 64.9 °F /  18.3 °C 54.5 °F /  12.5 °C 29.94in /  1013.8hPa Calm     69% 0.00in /  0mm
10:14 64.7 °F /  18.2 °C 53.9 °F /  12.2 °C 29.93in /  1013.4hPa Calm     68% 0.00in /  0mm
10:19 65.0 °F /  18.3 °C 55.0 °F /  12.8 °C 29.93in /  1013.4hPa Calm     70% 0.00in /  0mm
10:24 65.6 °F /  18.7 °C 53.9 °F /  12.2 °C 29.93in /  1013.4hPa WNW 1.0mph /  1.6km/h 4.0mph /  6.4km/h 66% 0.00in /  0mm
10:29 65.5 °F /  18.6 °C 53.9 °F /  12.2 °C 29.93in /  1013.4hPa Calm   6.0mph /  9.7km/h 66% 0.00in /  0mm
10:34 65.9 °F /  18.8 °C 53.4 °F /  11.9 °C 29.93in /  1013.4hPa NW 5.0mph /  8km/h 9.0mph /  14.5km/h 64% 0.00in /  0mm
10:39 64.6 °F /  18.1 °C 52.6 °F /  11.4 °C 29.93in /  1013.4hPa WNW 2.0mph /  3.2km/h 9.0mph /  14.5km/h 65% 0.00in /  0mm
10:44 64.7 °F /  18.2 °C 52.3 °F /  11.3 °C 29.93in /  1013.4hPa NW 6.0mph /  9.7km/h 11.0mph /  17.7km/h 64% 0.00in /  0mm
10:49 64.9 °F /  18.3 °C 53.7 °F /  12.1 °C 29.93in /  1013.4hPa West 1.0mph /  1.6km/h 11.0mph /  17.7km/h 67% 0.00in /  0mm
10:54 65.4 °F /  18.6 °C 56.5 °F /  13.6 °C 29.93in /  1013.4hPa Calm   7.0mph /  11.3km/h 73% 0.00in /  0mm
10:59 65.8 °F /  18.8 °C 55.0 °F /  12.8 °C 29.93in /  1013.4hPa WNW 1.0mph /  1.6km/h 4.0mph /  6.4km/h 68% 0.00in /  0mm
11:04 65.2 °F /  18.4 °C 54.8 °F /  12.7 °C 29.93in /  1013.4hPa Calm   8.0mph /  12.9km/h 69% 0.00in /  0mm
11:09 64.5 °F /  18.1 °C 53.3 °F /  11.8 °C 29.93in /  1013.4hPa Calm   8.0mph /  12.9km/h 67% 0.00in /  0mm
11:14 65.2 °F /  18.4 °C 54.0 °F /  12.2 °C 29.92in /  1013.1hPa Calm   1.0mph /  1.6km/h 67% 0.00in /  0mm
11:19 66.3 °F /  19.1 °C 55.4 °F /  13 °C 29.92in /  1013.1hPa NW 2.0mph /  3.2km/h 7.0mph /  11.3km/h 68% 0.00in /  0mm
11:24 66.7 °F /  19.3 °C 53.7 °F /  12.1 °C 29.92in /  1013.1hPa NW 1.0mph /  1.6km/h 9.0mph /  14.5km/h 63% 0.00in /  0mm
11:29 65.8 °F /  18.8 °C 53.3 °F /  11.8 °C 29.92in /  1013.1hPa WNW 5.0mph /  8km/h 9.0mph /  14.5km/h 64% 0.00in /  0mm
11:34 66.2 °F /  19 °C 55.3 °F /  12.9 °C 29.92in /  1013.1hPa NW 2.0mph /  3.2km/h 9.0mph /  14.5km/h 68% 0.00in /  0mm
11:39 66.3 °F /  19.1 °C 53.3 °F /  11.8 °C 29.92in /  1013.1hPa Calm   6.0mph /  9.7km/h 63% 0.00in /  0mm
11:44 65.6 °F /  18.7 °C 50.9 °F /  10.5 °C 29.92in /  1013.1hPa NNE 1.0mph /  1.6km/h 6.0mph /  9.7km/h 59% 0.00in /  0mm
11:49 65.1 °F /  18.4 °C 51.3 °F /  10.7 °C 29.92in /  1013.1hPa Calm   5.0mph /  8km/h 61% 0.00in /  0mm
11:54 64.8 °F /  18.2 °C 52.8 °F /  11.6 °C 29.92in /  1013.1hPa Calm     65% 0.00in /  0mm
11:59 65.6 °F /  18.7 °C 51.8 °F /  11 °C 29.92in /  1013.1hPa Calm   6.0mph /  9.7km/h 61% 0.00in /  0mm
12:04 66.7 °F /  19.3 °C 54.1 °F /  12.3 °C 29.92in /  1013.1hPa NW 3.0mph /  4.8km/h 7.0mph /  11.3km/h 64% 0.00in /  0mm
12:09 66.5 °F /  19.2 °C 51.7 °F /  10.9 °C 29.92in /  1013.1hPa WNW 3.0mph /  4.8km/h 9.0mph /  14.5km/h 59% 0.00in /  0mm
12:14 66.1 °F /  18.9 °C 52.7 °F /  11.5 °C 29.92in /  1013.1hPa WNW 1.0mph /  1.6km/h 9.0mph /  14.5km/h 62% 0.00in /  0mm
12:19 66.8 °F /  19.3 °C 52.5 °F /  11.4 °C 29.92in /  1013.1hPa Calm   7.0mph /  11.3km/h 60% 0.00in /  0mm
12:24 67.8 °F /  19.9 °C 54.3 °F /  12.4 °C 29.92in /  1013.1hPa Calm   4.0mph /  6.4km/h 62% 0.00in /  0mm
12:29 68.4 °F /  20.2 °C 52.1 °F /  11.2 °C 29.92in /  1013.1hPa Calm   5.0mph /  8km/h 56% 0.00in /  0mm
12:34 68.2 °F /  20.1 °C 51.9 °F /  11.1 °C 29.91in /  1012.8hPa Calm   5.0mph /  8km/h 56% 0.00in /  0mm
12:39 67.5 °F /  19.7 °C 51.7 °F /  10.9 °C 29.91in /  1012.8hPa Calm   1.0mph /  1.6km/h 57% 0.00in /  0mm
12:44 66.5 °F /  19.2 °C 53.1 °F /  11.7 °C 29.92in /  1013.1hPa Calm   1.0mph /  1.6km/h 62% 0.00in /  0mm
12:49 65.7 °F /  18.7 °C 52.8 °F /  11.6 °C 29.91in /  1012.8hPa Calm   1.0mph /  1.6km/h 63% 0.00in /  0mm
12:54 66.4 °F /  19.1 °C 54.7 °F /  12.6 °C 29.91in /  1012.8hPa Calm   3.0mph /  4.8km/h 66% 0.00in /  0mm
12:59 67.9 °F /  19.9 °C 54.4 °F /  12.4 °C 29.91in /  1012.8hPa Calm   4.0mph /  6.4km/h 62% 0.00in /  0mm
13:04 69.0 °F /  20.6 °C 55.5 °F /  13.1 °C 29.91in /  1012.8hPa Calm   4.0mph /  6.4km/h 62% 0.00in /  0mm
13:09 69.4 °F /  20.8 °C 54.0 °F /  12.2 °C 29.91in /  1012.8hPa Calm   6.0mph /  9.7km/h 58% 0.00in /  0mm
13:14 69.9 °F /  21.1 °C 54.5 °F /  12.5 °C 29.90in /  1012.4hPa Calm   6.0mph /  9.7km/h 58% 0.00in /  0mm
13:19 70.2 °F /  21.2 °C 55.2 °F /  12.9 °C 29.90in /  1012.4hPa NW 2.0mph /  3.2km/h 7.0mph /  11.3km/h 59% 0.00in /  0mm
13:24 69.8 °F /  21 °C 53.4 °F /  11.9 °C 29.90in /  1012.4hPa Calm   7.0mph /  11.3km/h 56% 0.00in /  0mm
13:29 69.4 °F /  20.8 °C 52.6 °F /  11.4 °C 29.90in /  1012.4hPa ENE 1.0mph /  1.6km/h 7.0mph /  11.3km/h 55% 0.00in /  0mm
13:34 69.5 °F /  20.8 °C 52.6 °F /  11.4 °C 29.90in /  1012.4hPa Calm   7.0mph /  11.3km/h 55% 0.00in /  0mm
13:39 69.9 °F /  21.1 °C 55.4 °F /  13 °C 29.90in /  1012.4hPa Calm   5.0mph /  8km/h 60% 0.00in /  0mm
13:44 70.7 °F /  21.5 °C 56.2 °F /  13.4 °C 29.90in /  1012.4hPa Calm   5.0mph /  8km/h 60% 0.00in /  0mm
13:49 70.6 °F /  21.4 °C 52.7 °F /  11.5 °C 29.90in /  1012.4hPa Calm   4.0mph /  6.4km/h 53% 0.00in /  0mm
13:54 70.5 °F /  21.4 °C 54.6 °F /  12.6 °C 29.90in /  1012.4hPa Calm   4.0mph /  6.4km/h 57% 0.00in /  0mm
13:59 70.6 °F /  21.4 °C 52.7 °F /  11.5 °C 29.89in /  1012.1hPa Calm   7.0mph /  11.3km/h 53% 0.00in /  0mm
14:04 70.7 °F /  21.5 °C 51.7 °F /  10.9 °C 29.89in /  1012.1hPa Calm   7.0mph /  11.3km/h 51% 0.00in /  0mm
14:09 71.1 °F /  21.7 °C 51.5 °F /  10.8 °C 29.89in /  1012.1hPa WNW 2.0mph /  3.2km/h 7.0mph /  11.3km/h 50% 0.00in /  0mm
14:14 71.0 °F /  21.7 °C 55.5 °F /  13.1 °C 29.89in /  1012.1hPa Calm   7.0mph /  11.3km/h 58% 0.00in /  0mm
14:19 71.5 °F /  21.9 °C 56.0 °F /  13.3 °C 29.89in /  1012.1hPa Calm   4.0mph /  6.4km/h 58% 0.00in /  0mm
14:34 71.0 °F /  21.7 °C 53.0 °F /  11.7 °C 29.89in /  1012.1hPa NE 1.0mph /  1.6km/h 6.0mph /  9.7km/h 53% 0.00in /  0mm
14:44 70.8 °F /  21.6 °C 53.9 °F /  12.2 °C 29.88in /  1011.7hPa Calm   6.0mph /  9.7km/h 55% 0.00in /  0mm
14:49 71.3 °F /  21.8 °C 55.8 °F /  13.2 °C 29.88in /  1011.7hPa Calm   4.0mph /  6.4km/h 58% 0.00in /  0mm
14:54 71.7 °F /  22.1 °C 51.5 °F /  10.8 °C 29.88in /  1011.7hPa Calm     49% 0.00in /  0mm
14:59 72.2 °F /  22.3 °C 51.4 °F /  10.8 °C 29.88in /  1011.7hPa Calm   1.0mph /  1.6km/h 48% 0.00in /  0mm
15:04 72.2 °F /  22.3 °C 54.1 °F /  12.3 °C 29.88in /  1011.7hPa WNW 3.0mph /  4.8km/h 8.0mph /  12.9km/h 53% 0.00in /  0mm
15:09 72.1 °F /  22.3 °C 51.9 °F /  11.1 °C 29.88in /  1011.7hPa Calm   8.0mph /  12.9km/h 49% 0.00in /  0mm
15:14 72.2 °F /  22.3 °C 50.9 °F /  10.5 °C 29.88in /  1011.7hPa NNW 1.0mph /  1.6km/h 5.0mph /  8km/h 47% 0.00in /  0mm
15:19 72.0 °F /  22.2 °C 48.9 °F /  9.4 °C 29.88in /  1011.7hPa NNE 1.0mph /  1.6km/h 9.0mph /  14.5km/h 44% 0.00in /  0mm
15:24 72.4 °F /  22.4 °C 52.2 °F /  11.2 °C 29.88in /  1011.7hPa Calm   9.0mph /  14.5km/h 49% 0.00in /  0mm
15:29 72.7 °F /  22.6 °C 54.1 °F /  12.3 °C 29.87in /  1011.4hPa Calm   1.0mph /  1.6km/h 52% 0.00in /  0mm
15:39 71.3 °F /  21.8 °C 51.2 °F /  10.7 °C 29.87in /  1011.4hPa Calm   9.0mph /  14.5km/h 49% 0.00in /  0mm
15:44 71.3 °F /  21.8 °C 48.9 °F /  9.4 °C 29.87in /  1011.4hPa Calm   8.0mph /  12.9km/h 45% 0.00in /  0mm
15:49 71.6 °F /  22 °C 52.0 °F /  11.1 °C 29.87in /  1011.4hPa Calm   8.0mph /  12.9km/h 50% 0.00in /  0mm
15:54 71.8 °F /  22.1 °C 50.5 °F /  10.3 °C 29.87in /  1011.4hPa Calm   4.0mph /  6.4km/h 47% 0.00in /  0mm
15:59 71.5 °F /  21.9 °C 48.5 °F /  9.2 °C 29.87in /  1011.4hPa Calm   2.0mph /  3.2km/h 44% 0.00in /  0mm
16:04 72.0 °F /  22.2 °C 51.8 °F /  11 °C 29.87in /  1011.4hPa Calm   2.0mph /  3.2km/h 49% 0.00in /  0mm
16:09 72.4 °F /  22.4 °C 53.3 °F /  11.8 °C 29.87in /  1011.4hPa Calm   1.0mph /  1.6km/h 51% 0.00in /  0mm
16:14 72.8 °F /  22.7 °C 53.1 °F /  11.7 °C 29.87in /  1011.4hPa NW 1.0mph /  1.6km/h 6.0mph /  9.7km/h 50% 0.00in /  0mm
16:19 72.7 °F /  22.6 °C 51.9 °F /  11.1 °C 29.86in /  1011.1hPa WNW 5.0mph /  8km/h 9.0mph /  14.5km/h 48% 0.00in /  0mm
16:24 72.4 °F /  22.4 °C 52.2 °F /  11.2 °C 29.86in /  1011.1hPa NW 2.0mph /  3.2km/h 9.0mph /  14.5km/h 49% 0.00in /  0mm
16:29 72.0 °F /  22.2 °C 52.9 °F /  11.6 °C 29.86in /  1011.1hPa West 2.0mph /  3.2km/h 10.0mph /  16.1km/h 51% 0.00in /  0mm
16:34 72.3 °F /  22.4 °C 51.0 °F /  10.6 °C 29.86in /  1011.1hPa Calm   10.0mph /  16.1km/h 47% 0.00in /  0mm
16:39 72.0 °F /  22.2 °C 50.7 °F /  10.4 °C 29.87in /  1011.4hPa Calm   4.0mph /  6.4km/h 47% 0.00in /  0mm
16:44 72.0 °F /  22.2 °C 49.5 °F /  9.7 °C 29.86in /  1011.1hPa Calm   4.0mph /  6.4km/h 45% 0.00in /  0mm
16:49 72.2 °F /  22.3 °C 49.7 °F /  9.8 °C 29.86in /  1011.1hPa Calm   1.0mph /  1.6km/h 45% 0.00in /  0mm
16:54 72.2 °F /  22.3 °C 52.5 °F /  11.4 °C 29.86in /  1011.1hPa Calm   5.0mph /  8km/h 50% 0.00in /  0mm
16:59 72.4 °F /  22.4 °C 50.5 °F /  10.3 °C 29.86in /  1011.1hPa Calm   5.0mph /  8km/h 46% 0.00in /  0mm
17:09 72.5 °F /  22.5 °C 48.8 °F /  9.3 °C 29.86in /  1011.1hPa Calm   3.0mph /  4.8km/h 43% 0.00in /  0mm
17:14 72.5 °F /  22.5 °C 48.8 °F /  9.3 °C 29.86in /  1011.1hPa Calm   3.0mph /  4.8km/h 43% 0.00in /  0mm
17:19 72.6 °F /  22.6 °C 45.6 °F /  7.6 °C 29.85in /  1010.7hPa Calm     38% 0.00in /  0mm
17:24 72.4 °F /  22.4 °C 45.4 °F /  7.4 °C 29.85in /  1010.7hPa NNE 1.0mph /  1.6km/h 5.0mph /  8km/h 38% 0.00in /  0mm
17:29 72.5 °F /  22.5 °C 46.2 °F /  7.9 °C 29.85in /  1010.7hPa Calm   5.0mph /  8km/h 39% 0.00in /  0mm
17:34 72.8 °F /  22.7 °C 46.4 °F /  8 °C 29.85in /  1010.7hPa Calm   2.0mph /  3.2km/h 39% 0.00in /  0mm
17:39 73.0 °F /  22.8 °C 49.8 °F /  9.9 °C 29.85in /  1010.7hPa Calm   1.0mph /  1.6km/h 44% 0.00in /  0mm
17:44 73.0 °F /  22.8 °C 51.6 °F /  10.9 °C 29.85in /  1010.7hPa Calm   1.0mph /  1.6km/h 47% 0.00in /  0mm
17:49 72.9 °F /  22.7 °C 48.5 °F /  9.2 °C 29.85in /  1010.7hPa Calm   1.0mph /  1.6km/h 42% 0.00in /  0mm
17:54 73.0 °F /  22.8 °C 47.9 °F /  8.8 °C 29.84in /  1010.4hPa Calm     41% 0.00in /  0mm
17:59 73.0 °F /  22.8 °C 47.3 °F /  8.5 °C 29.84in /  1010.4hPa Calm   1.0mph /  1.6km/h 40% 0.00in /  0mm
18:04 72.8 °F /  22.7 °C 45.0 °F /  7.2 °C 29.84in /  1010.4hPa Calm   1.0mph /  1.6km/h 37% 0.00in /  0mm
18:09 72.8 °F /  22.7 °C 46.4 °F /  8 °C 29.84in /  1010.4hPa Calm     39% 0.00in /  0mm
18:14 72.8 °F /  22.7 °C 46.4 °F /  8 °C 29.84in /  1010.4hPa North 1.0mph /  1.6km/h 4.0mph /  6.4km/h 39% 0.00in /  0mm
18:19 72.7 °F /  22.6 °C 46.3 °F /  7.9 °C 29.84in /  1010.4hPa Calm   4.0mph /  6.4km/h 39% 0.00in /  0mm
18:24 72.5 °F /  22.5 °C 46.2 °F /  7.9 °C 29.84in /  1010.4hPa Calm   3.0mph /  4.8km/h 39% 0.00in /  0mm
18:29 72.5 °F /  22.5 °C 47.5 °F /  8.6 °C 29.85in /  1010.7hPa Calm   3.0mph /  4.8km/h 41% 0.00in /  0mm
18:34 72.8 °F /  22.7 °C 47.8 °F /  8.8 °C 29.85in /  1010.7hPa Calm     41% 0.00in /  0mm
18:39 72.6 °F /  22.6 °C 46.9 °F /  8.3 °C 29.85in /  1010.7hPa Calm     40% 0.00in /  0mm
18:44 72.2 °F /  22.3 °C 48.5 °F /  9.2 °C 29.85in /  1010.7hPa Calm     43% 0.00in /  0mm
18:49 71.6 °F /  22 °C 50.9 °F /  10.5 °C 29.85in /  1010.7hPa Calm     48% 0.00in /  0mm
18:54 71.2 °F /  21.8 °C 48.8 °F /  9.3 °C 29.85in /  1010.7hPa Calm     45% 0.00in /  0mm
18:59 71.1 °F /  21.7 °C 48.1 °F /  8.9 °C 29.85in /  1010.7hPa Calm     44% 0.00in /  0mm
19:04 70.2 °F /  21.2 °C 47.9 °F /  8.8 °C 29.85in /  1010.7hPa Calm     45% 0.00in /  0mm
19:09 69.5 °F /  20.8 °C 49.0 °F /  9.4 °C 29.85in /  1010.7hPa Calm     48% 0.00in /  0mm
19:14 68.6 °F /  20.3 °C 51.3 °F /  10.7 °C 29.85in /  1010.7hPa Calm     54% 0.00in /  0mm
19:19 67.6 °F /  19.8 °C 52.8 °F /  11.6 °C 29.85in /  1010.7hPa Calm     59% 0.00in /  0mm
19:24 66.4 °F /  19.1 °C 51.2 °F /  10.7 °C 29.85in /  1010.7hPa Calm     58% 0.00in /  0mm
19:29 65.6 °F /  18.7 °C 52.2 °F /  11.2 °C 29.85in /  1010.7hPa Calm     62% 0.00in /  0mm
19:34 64.9 °F /  18.3 °C 52.0 °F /  11.1 °C 29.85in /  1010.7hPa Calm     63% 0.00in /  0mm
19:39 64.0 °F /  17.8 °C 52.4 °F /  11.3 °C 29.85in /  1010.7hPa Calm     66% 0.00in /  0mm
19:44 63.3 °F /  17.4 °C 51.8 °F /  11 °C 29.85in /  1010.7hPa Calm     66% 0.00in /  0mm
19:49 62.6 °F /  17 °C 51.9 °F /  11.1 °C 29.85in /  1010.7hPa Calm     68% 0.00in /  0mm
19:54 61.9 °F /  16.6 °C 51.6 °F /  10.9 °C 29.85in /  1010.7hPa Calm     69% 0.00in /  0mm
19:59 61.2 °F /  16.2 °C 51.7 °F /  10.9 °C 29.85in /  1010.7hPa Calm     71% 0.00in /  0mm
20:04 60.4 °F /  15.8 °C 51.7 °F /  10.9 °C 29.85in /  1010.7hPa Calm     73% 0.00in /  0mm
20:09 59.6 °F /  15.3 °C 51.3 °F /  10.7 °C 29.85in /  1010.7hPa Calm     74% 0.00in /  0mm
20:14 59.0 °F /  15 °C 50.7 °F /  10.4 °C 29.85in /  1010.7hPa Calm     74% 0.00in /  0mm
20:19 58.5 °F /  14.7 °C 51.0 °F /  10.6 °C 29.85in /  1010.7hPa Calm     76% 0.00in /  0mm
20:24 57.9 °F /  14.4 °C 50.4 °F /  10.2 °C 29.85in /  1010.7hPa Calm     76% 0.00in /  0mm
20:29 57.2 °F /  14 °C 49.7 °F /  9.8 °C 29.85in /  1010.7hPa Calm     76% 0.00in /  0mm
20:34 56.5 °F /  13.6 °C 49.7 °F /  9.8 °C 29.85in /  1010.7hPa Calm     78% 0.00in /  0mm
20:39 55.7 °F /  13.2 °C 48.3 °F /  9.1 °C 29.86in /  1011.1hPa Calm     76% 0.00in /  0mm
20:44 55.1 °F /  12.8 °C 48.0 °F /  8.9 °C 29.85in /  1010.7hPa Calm     77% 0.00in /  0mm
20:49 54.5 °F /  12.5 °C 47.8 °F /  8.8 °C 29.86in /  1011.1hPa Calm     78% 0.00in /  0mm
20:54 54.1 °F /  12.3 °C 47.4 °F /  8.6 °C 29.86in /  1011.1hPa Calm     78% 0.00in /  0mm
20:59 53.6 °F /  12 °C 47.3 °F /  8.5 °C 29.86in /  1011.1hPa Calm     79% 0.00in /  0mm
21:04 53.3 °F /  11.8 °C 47.3 °F /  8.5 °C 29.86in /  1011.1hPa Calm     80% 0.00in /  0mm
21:09 53.0 °F /  11.7 °C 47.3 °F /  8.5 °C 29.86in /  1011.1hPa Calm     81% 0.00in /  0mm
21:14 52.7 °F /  11.5 °C 47.4 °F /  8.6 °C 29.86in /  1011.1hPa Calm     82% 0.00in /  0mm
21:19 52.6 °F /  11.4 °C 47.3 °F /  8.5 °C 29.86in /  1011.1hPa Calm     82% 0.00in /  0mm
21:24 52.7 °F /  11.5 °C 47.0 °F /  8.3 °C 29.86in /  1011.1hPa Calm     81% 0.00in /  0mm
21:29 52.9 °F /  11.6 °C 47.2 °F /  8.4 °C 29.86in /  1011.1hPa Calm     81% 0.00in /  0mm
21:34 53.0 °F /  11.7 °C 47.0 °F /  8.3 °C 29.86in /  1011.1hPa Calm     80% 0.00in /  0mm
21:39 52.9 °F /  11.6 °C 47.2 °F /  8.4 °C 29.86in /  1011.1hPa Calm     81% 0.00in /  0mm
21:44 52.7 °F /  11.5 °C 46.4 °F /  8 °C 29.86in /  1011.1hPa Calm     79% 0.00in /  0mm
21:49 52.8 °F /  11.6 °C 46.1 °F /  7.8 °C 29.87in /  1011.4hPa Calm     78% 0.00in /  0mm
21:54 52.7 °F /  11.5 °C 46.4 °F /  8 °C 29.87in /  1011.4hPa Calm     79% 0.00in /  0mm
21:59 52.4 °F /  11.3 °C 46.1 °F /  7.8 °C 29.86in /  1011.1hPa Calm     79% 0.00in /  0mm
22:04 52.3 °F /  11.3 °C 46.0 °F /  7.8 °C 29.86in /  1011.1hPa Calm     79% 0.00in /  0mm
22:09 52.4 °F /  11.3 °C 45.7 °F /  7.6 °C 29.86in /  1011.1hPa Calm     78% 0.00in /  0mm
22:14 52.4 °F /  11.3 °C 46.1 °F /  7.8 °C 29.86in /  1011.1hPa Calm     79% 0.00in /  0mm
22:19 52.2 °F /  11.2 °C 46.6 °F /  8.1 °C 29.86in /  1011.1hPa Calm     81% 0.00in /  0mm
22:24 51.8 °F /  11 °C 46.2 °F /  7.9 °C 29.86in /  1011.1hPa Calm     81% 0.00in /  0mm
22:29 51.7 °F /  10.9 °C 45.7 °F /  7.6 °C 29.86in /  1011.1hPa Calm   2.0mph /  3.2km/h 80% 0.00in /  0mm
22:34 52.1 °F /  11.2 °C 45.8 °F /  7.7 °C 29.86in /  1011.1hPa Calm   2.0mph /  3.2km/h 79% 0.00in /  0mm
22:39 52.6 °F /  11.4 °C 45.9 °F /  7.7 °C 29.86in /  1011.1hPa Calm   2.0mph /  3.2km/h 78% 0.00in /  0mm
22:44 52.9 °F /  11.6 °C 46.2 °F /  7.9 °C 29.86in /  1011.1hPa Calm   2.0mph /  3.2km/h 78% 0.00in /  0mm
22:49 53.0 °F /  11.7 °C 46.3 °F /  7.9 °C 29.86in /  1011.1hPa Calm   1.0mph /  1.6km/h 78% 0.00in /  0mm
22:54 52.9 °F /  11.6 °C 46.6 °F /  8.1 °C 29.86in /  1011.1hPa Calm     79% 0.00in /  0mm
22:59 52.7 °F /  11.5 °C 46.4 °F /  8 °C 29.86in /  1011.1hPa Calm     79% 0.00in /  0mm
23:04 52.5 °F /  11.4 °C 46.2 °F /  7.9 °C 29.86in /  1011.1hPa Calm   1.0mph /  1.6km/h 79% 0.00in /  0mm
23:09 52.3 °F /  11.3 °C 46.3 °F /  7.9 °C 29.86in /  1011.1hPa Calm   1.0mph /  1.6km/h 80% 0.00in /  0mm
23:14 52.1 °F /  11.2 °C 46.1 °F /  7.8 °C 29.86in /  1011.1hPa Calm     80% 0.00in /  0mm
23:19 51.8 °F /  11 °C 45.8 °F /  7.7 °C 29.86in /  1011.1hPa Calm   3.0mph /  4.8km/h 80% 0.00in /  0mm
23:24 51.8 °F /  11 °C 45.8 °F /  7.7 °C 29.86in /  1011.1hPa Calm   4.0mph /  6.4km/h 80% 0.00in /  0mm
23:29 51.7 °F /  10.9 °C 45.7 °F /  7.6 °C 29.86in /  1011.1hPa Calm   4.0mph /  6.4km/h 80% 0.00in /  0mm
23:34 51.7 °F /  10.9 °C 45.4 °F /  7.4 °C 29.85in /  1010.7hPa Calm   2.0mph /  3.2km/h 79% 0.00in /  0mm
23:39 51.9 °F /  11.1 °C 45.6 °F /  7.6 °C 29.85in /  1010.7hPa SW 1.0mph /  1.6km/h 3.0mph /  4.8km/h 79% 0.00in /  0mm
23:44 52.1 °F /  11.2 °C 45.8 °F /  7.7 °C 29.85in /  1010.7hPa Calm   3.0mph /  4.8km/h 79% 0.00in /  0mm
23:49 52.2 °F /  11.2 °C 45.6 °F /  7.6 °C 29.85in /  1010.7hPa Calm   3.0mph /  4.8km/h 78% 0.00in /  0mm
23:54 52.3 °F /  11.3 °C 45.7 °F /  7.6 °C 29.85in /  1010.7hPa Calm   3.0mph /  4.8km/h 78% 0.00in /  0mm
23:59 52.4 °F /  11.3 °C 45.7 °F /  7.6 °C 29.85in /  1010.7hPa Calm   4.0mph /  6.4km/h 78% 0.00in /  0mm
Westford Weather
Compliments of Weather Underground

 
 
Current Radar Loop:

Copyright © WestfordWeather.net 2007-2014. All rights reserved.